Terminal Aerodrome Forecast
Issued by NWS

Home | Current Version | Previous Version | Text Only | Print | Product List | Glossary On
Versions: 1 2 3 4 5 6 7 8 9 10 11 12 13 14 15 16 17 18 19 20 21 22
199
FTUS43 KAPX 230108 AAA
TAFMBL
TAF AMD
KMBL 230108Z 2301/2324 19011G17KT P6SM BKN050
     FM230300 VRB03KT P6SM VCSH BKN050
     FM230500 VRB03KT P6SM BKN050
     FM230700 VRB03KT 4SM BR BKN200
     FM230900 00000KT 2SM BR BKN250
     FM231400 VRB03KT 4SM BR OVC015
     FM231500 VRB03KT P6SM OVC015
     FM232100 32006KT P6SM OVC035=

USA.gov is the U.S. government's official web portal to all federal, state and local government web resources and services.